sensor_id;sensor_type;location;lat;lon;timestamp;P1;durP1;ratioP1;P2;durP2;ratioP2
13493;SDS011;6819;50.886;4.332;2024-01-06T00:01:50;6.10;;;2.55;;
13493;SDS011;6819;50.886;4.332;2024-01-06T00:04:16;6.47;;;2.80;;
13493;SDS011;6819;50.886;4.332;2024-01-06T00:06:42;5.43;;;2.42;;
13493;SDS011;6819;50.886;4.332;2024-01-06T00:09:08;8.02;;;2.50;;
13493;SDS011;6819;50.886;4.332;2024-01-06T00:11:34;4.85;;;2.10;;
13493;SDS011;6819;50.886;4.332;2024-01-06T00:14:00;7.75;;;3.83;;
13493;SDS011;6819;50.886;4.332;2024-01-06T00:16:26;4.45;;;2.42;;
13493;SDS011;6819;50.886;4.332;2024-01-06T00:18:52;7.53;;;2.97;;
13493;SDS011;6819;50.886;4.332;2024-01-06T00:21:18;3.45;;;2.15;;
13493;SDS011;6819;50.886;4.332;2024-01-06T00:23:44;7.07;;;2.88;;
13493;SDS011;6819;50.886;4.332;2024-01-06T00:26:10;5.90;;;2.90;;
13493;SDS011;6819;50.886;4.332;2024-01-06T00:28:37;8.57;;;2.83;;
13493;SDS011;6819;50.886;4.332;2024-01-06T00:31:04;9.85;;;2.65;;
13493;SDS011;6819;50.886;4.332;2024-01-06T00:33:31;5.50;;;2.33;;
13493;SDS011;6819;50.886;4.332;2024-01-06T00:35:57;3.88;;;2.60;;
13493;SDS011;6819;50.886;4.332;2024-01-06T00:38:23;3.22;;;2.17;;
13493;SDS011;6819;50.886;4.332;2024-01-06T00:40:49;4.85;;;2.25;;
13493;SDS011;6819;50.886;4.332;2024-01-06T00:43:15;4.53;;;2.47;;
13493;SDS011;6819;50.886;4.332;2024-01-06T00:45:41;6.63;;;2.65;;
13493;SDS011;6819;50.886;4.332;2024-01-06T00:48:07;6.43;;;2.30;;
13493;SDS011;6819;50.886;4.332;2024-01-06T00:50:33;7.32;;;2.30;;
13493;SDS011;6819;50.886;4.332;2024-01-06T00:52:59;4.20;;;2.30;;
13493;SDS011;6819;50.886;4.332;2024-01-06T00:55:25;4.75;;;2.17;;
13493;SDS011;6819;50.886;4.332;2024-01-06T00:57:51;3.63;;;2.10;;
13493;SDS011;6819;50.886;4.332;2024-01-06T01:00:17;5.28;;;2.72;;
13493;SDS011;6819;50.886;4.332;2024-01-06T01:02:43;4.53;;;2.40;;
13493;SDS011;6819;50.886;4.332;2024-01-06T01:05:09;3.60;;;1.85;;
13493;SDS011;6819;50.886;4.332;2024-01-06T01:07:35;4.75;;;1.88;;
13493;SDS011;6819;50.886;4.332;2024-01-06T01:10:01;8.27;;;2.20;;
13493;SDS011;6819;50.886;4.332;2024-01-06T01:12:27;4.07;;;1.88;;
13493;SDS011;6819;50.886;4.332;2024-01-06T01:14:53;4.88;;;2.00;;
13493;SDS011;6819;50.886;4.332;2024-01-06T01:17:19;6.88;;;1.73;;
13493;SDS011;6819;50.886;4.332;2024-01-06T01:19:46;5.18;;;2.03;;
13493;SDS011;6819;50.886;4.332;2024-01-06T01:22:12;5.47;;;1.90;;
13493;SDS011;6819;50.886;4.332;2024-01-06T01:24:38;7.75;;;2.10;;
13493;SDS011;6819;50.886;4.332;2024-01-06T01:27:04;4.40;;;1.77;;
13493;SDS011;6819;50.886;4.332;2024-01-06T01:29:30;5.72;;;1.75;;
13493;SDS011;6819;50.886;4.332;2024-01-06T01:31:57;5.97;;;2.25;;
13493;SDS011;6819;50.886;4.332;2024-01-06T01:34:23;5.05;;;1.83;;
13493;SDS011;6819;50.886;4.332;2024-01-06T01:36:49;7.45;;;2.00;;
13493;SDS011;6819;50.886;4.332;2024-01-06T01:39:15;6.80;;;2.00;;
13493;SDS011;6819;50.886;4.332;2024-01-06T01:41:41;3.97;;;1.60;;
13493;SDS011;6819;50.886;4.332;2024-01-06T01:44:07;3.95;;;1.80;;
13493;SDS011;6819;50.886;4.332;2024-01-06T01:46:33;2.97;;;1.77;;
13493;SDS011;6819;50.886;4.332;2024-01-06T01:49:00;6.55;;;1.80;;
13493;SDS011;6819;50.886;4.332;2024-01-06T01:51:28;3.03;;;1.65;;
13493;SDS011;6819;50.886;4.332;2024-01-06T01:53:54;4.28;;;2.00;;
13493;SDS011;6819;50.886;4.332;2024-01-06T01:56:21;2.70;;;1.40;;
13493;SDS011;6819;50.886;4.332;2024-01-06T01:58:47;3.47;;;1.75;;
13493;SDS011;6819;50.886;4.332;2024-01-06T02:01:13;4.53;;;1.50;;
13493;SDS011;6819;50.886;4.332;2024-01-06T02:03:40;2.10;;;1.58;;
13493;SDS011;6819;50.886;4.332;2024-01-06T02:06:10;2.72;;;1.33;;
13493;SDS011;6819;50.886;4.332;2024-01-06T02:08:37;2.58;;;1.70;;
13493;SDS011;6819;50.886;4.332;2024-01-06T02:11:03;3.60;;;1.73;;
13493;SDS011;6819;50.886;4.332;2024-01-06T02:13:36;3.92;;;1.92;;
13493;SDS011;6819;50.886;4.332;2024-01-06T02:16:03;2.75;;;1.55;;
13493;SDS011;6819;50.886;4.332;2024-01-06T02:18:30;5.60;;;1.90;;
13493;SDS011;6819;50.886;4.332;2024-01-06T02:20:59;2.97;;;1.48;;
13493;SDS011;6819;50.886;4.332;2024-01-06T02:23:26;2.60;;;1.40;;
13493;SDS011;6819;50.886;4.332;2024-01-06T02:25:52;3.22;;;1.40;;
13493;SDS011;6819;50.886;4.332;2024-01-06T02:28:18;4.10;;;1.70;;
13493;SDS011;6819;50.886;4.332;2024-01-06T02:30:44;2.30;;;1.50;;
13493;SDS011;6819;50.886;4.332;2024-01-06T02:33:10;4.65;;;1.77;;
13493;SDS011;6819;50.886;4.332;2024-01-06T02:35:36;2.63;;;1.80;;
13493;SDS011;6819;50.886;4.332;2024-01-06T02:38:04;1.52;;;1.40;;
13493;SDS011;6819;50.886;4.332;2024-01-06T02:40:31;1.90;;;1.60;;
13493;SDS011;6819;50.886;4.332;2024-01-06T02:42:57;3.13;;;1.77;;
13493;SDS011;6819;50.886;4.332;2024-01-06T02:45:23;1.90;;;1.58;;
13493;SDS011;6819;50.886;4.332;2024-01-06T02:47:50;4.70;;;1.95;;
13493;SDS011;6819;50.886;4.332;2024-01-06T02:50:16;3.92;;;2.25;;
13493;SDS011;6819;50.886;4.332;2024-01-06T02:52:42;3.42;;;1.80;;
13493;SDS011;6819;50.886;4.332;2024-01-06T02:55:08;3.95;;;2.00;;
13493;SDS011;6819;50.886;4.332;2024-01-06T02:57:34;5.25;;;1.80;;
13493;SDS011;6819;50.886;4.332;2024-01-06T03:00:00;3.47;;;2.08;;
13493;SDS011;6819;50.886;4.332;2024-01-06T03:02:28;2.90;;;2.00;;
13493;SDS011;6819;50.886;4.332;2024-01-06T03:04:54;2.83;;;2.03;;
13493;SDS011;6819;50.886;4.332;2024-01-06T03:07:21;2.60;;;1.83;;
13493;SDS011;6819;50.886;4.332;2024-01-06T03:09:47;4.00;;;1.70;;
13493;SDS011;6819;50.886;4.332;2024-01-06T03:12:13;5.63;;;2.03;;
13493;SDS011;6819;50.886;4.332;2024-01-06T03:14:39;5.05;;;2.38;;
13493;SDS011;6819;50.886;4.332;2024-01-06T03:17:05;3.25;;;2.40;;
13493;SDS011;6819;50.886;4.332;2024-01-06T03:19:31;5.00;;;2.28;;
13493;SDS011;6819;50.886;4.332;2024-01-06T03:21:57;5.07;;;2.42;;
13493;SDS011;6819;50.886;4.332;2024-01-06T03:24:27;6.07;;;2.70;;
13493;SDS011;6819;50.886;4.332;2024-01-06T03:26:53;5.38;;;2.70;;
13493;SDS011;6819;50.886;4.332;2024-01-06T03:29:19;3.38;;;2.60;;
13493;SDS011;6819;50.886;4.332;2024-01-06T03:31:45;3.50;;;2.72;;
13493;SDS011;6819;50.886;4.332;2024-01-06T03:34:12;5.95;;;2.85;;
13493;SDS011;6819;50.886;4.332;2024-01-06T03:36:38;5.35;;;3.10;;
13493;SDS011;6819;50.886;4.332;2024-01-06T03:39:04;7.22;;;3.47;;
13493;SDS011;6819;50.886;4.332;2024-01-06T03:41:31;7.03;;;3.30;;
13493;SDS011;6819;50.886;4.332;2024-01-06T03:43:57;5.80;;;3.25;;
13493;SDS011;6819;50.886;4.332;2024-01-06T03:46:23;9.90;;;4.00;;
13493;SDS011;6819;50.886;4.332;2024-01-06T03:48:49;10.88;;;3.97;;
13493;SDS011;6819;50.886;4.332;2024-01-06T03:51:15;11.20;;;4.80;;
13493;SDS011;6819;50.886;4.332;2024-01-06T03:53:41;7.43;;;3.72;;
13493;SDS011;6819;50.886;4.332;2024-01-06T03:56:08;8.07;;;4.35;;
13493;SDS011;6819;50.886;4.332;2024-01-06T03:58:34;10.00;;;4.60;;
13493;SDS011;6819;50.886;4.332;2024-01-06T04:01:00;9.43;;;4.80;;
13493;SDS011;6819;50.886;4.332;2024-01-06T04:03:26;8.50;;;4.68;;
13493;SDS011;6819;50.886;4.332;2024-01-06T04:05:52;6.00;;;4.32;;
13493;SDS011;6819;50.886;4.332;2024-01-06T04:08:18;6.80;;;4.20;;
13493;SDS011;6819;50.886;4.332;2024-01-06T04:10:45;13.18;;;4.90;;
13493;SDS011;6819;50.886;4.332;2024-01-06T04:13:11;9.15;;;5.10;;
13493;SDS011;6819;50.886;4.332;2024-01-06T04:15:37;9.15;;;5.38;;
13493;SDS011;6819;50.886;4.332;2024-01-06T04:18:03;8.85;;;4.63;;
13493;SDS011;6819;50.886;4.332;2024-01-06T04:20:30;7.88;;;4.78;;
13493;SDS011;6819;50.886;4.332;2024-01-06T04:22:56;8.82;;;4.28;;
13493;SDS011;6819;50.886;4.332;2024-01-06T04:25:22;9.07;;;4.63;;
13493;SDS011;6819;50.886;4.332;2024-01-06T04:27:48;10.80;;;4.88;;
13493;SDS011;6819;50.886;4.332;2024-01-06T04:30:15;14.23;;;5.57;;
13493;SDS011;6819;50.886;4.332;2024-01-06T04:32:41;10.57;;;4.93;;
13493;SDS011;6819;50.886;4.332;2024-01-06T04:35:07;11.05;;;5.28;;
13493;SDS011;6819;50.886;4.332;2024-01-06T04:37:33;9.85;;;5.30;;
13493;SDS011;6819;50.886;4.332;2024-01-06T04:40:00;11.52;;;5.57;;
13493;SDS011;6819;50.886;4.332;2024-01-06T04:42:26;13.30;;;5.30;;
13493;SDS011;6819;50.886;4.332;2024-01-06T04:44:52;9.02;;;5.25;;
13493;SDS011;6819;50.886;4.332;2024-01-06T04:47:18;11.63;;;5.53;;
13493;SDS011;6819;50.886;4.332;2024-01-06T04:49:44;12.73;;;5.10;;
13493;SDS011;6819;50.886;4.332;2024-01-06T04:52:11;11.57;;;5.22;;
13493;SDS011;6819;50.886;4.332;2024-01-06T04:54:37;9.88;;;5.13;;
13493;SDS011;6819;50.886;4.332;2024-01-06T04:57:03;14.00;;;5.50;;
13493;SDS011;6819;50.886;4.332;2024-01-06T04:59:29;10.18;;;5.53;;
13493;SDS011;6819;50.886;4.332;2024-01-06T05:01:56;11.68;;;6.22;;
13493;SDS011;6819;50.886;4.332;2024-01-06T05:04:22;10.48;;;5.13;;
13493;SDS011;6819;50.886;4.332;2024-01-06T05:06:49;15.85;;;6.30;;
13493;SDS011;6819;50.886;4.332;2024-01-06T05:09:15;10.95;;;5.78;;
13493;SDS011;6819;50.886;4.332;2024-01-06T05:11:43;10.70;;;5.53;;
13493;SDS011;6819;50.886;4.332;2024-01-06T05:14:09;13.13;;;5.07;;
13493;SDS011;6819;50.886;4.332;2024-01-06T05:16:35;15.73;;;5.53;;
13493;SDS011;6819;50.886;4.332;2024-01-06T05:19:01;9.30;;;4.85;;
13493;SDS011;6819;50.886;4.332;2024-01-06T05:21:27;10.35;;;5.45;;
13493;SDS011;6819;50.886;4.332;2024-01-06T05:23:53;13.10;;;5.65;;
13493;SDS011;6819;50.886;4.332;2024-01-06T05:26:19;9.02;;;5.63;;
13493;SDS011;6819;50.886;4.332;2024-01-06T05:28:45;8.05;;;4.60;;
13493;SDS011;6819;50.886;4.332;2024-01-06T05:31:11;9.80;;;4.68;;
13493;SDS011;6819;50.886;4.332;2024-01-06T05:33:37;10.05;;;4.90;;
13493;SDS011;6819;50.886;4.332;2024-01-06T05:36:04;8.90;;;4.55;;
13493;SDS011;6819;50.886;4.332;2024-01-06T05:38:30;9.40;;;4.30;;
13493;SDS011;6819;50.886;4.332;2024-01-06T05:40:56;8.52;;;4.20;;
13493;SDS011;6819;50.886;4.332;2024-01-06T05:43:22;10.75;;;4.70;;
13493;SDS011;6819;50.886;4.332;2024-01-06T05:45:48;8.90;;;4.65;;
13493;SDS011;6819;50.886;4.332;2024-01-06T05:48:14;13.15;;;4.95;;
13493;SDS011;6819;50.886;4.332;2024-01-06T05:50:40;8.80;;;4.82;;
13493;SDS011;6819;50.886;4.332;2024-01-06T05:53:06;8.95;;;4.68;;
13493;SDS011;6819;50.886;4.332;2024-01-06T05:55:33;9.32;;;4.65;;
13493;SDS011;6819;50.886;4.332;2024-01-06T05:57:59;10.52;;;4.57;;
13493;SDS011;6819;50.886;4.332;2024-01-06T06:00:26;9.55;;;4.65;;
13493;SDS011;6819;50.886;4.332;2024-01-06T06:02:52;11.15;;;4.90;;
13493;SDS011;6819;50.886;4.332;2024-01-06T06:05:18;10.60;;;5.25;;
13493;SDS011;6819;50.886;4.332;2024-01-06T06:07:45;8.82;;;4.22;;
13493;SDS011;6819;50.886;4.332;2024-01-06T06:10:11;12.10;;;4.82;;
13493;SDS011;6819;50.886;4.332;2024-01-06T06:12:38;8.75;;;4.28;;
13493;SDS011;6819;50.886;4.332;2024-01-06T06:15:04;12.40;;;4.32;;
13493;SDS011;6819;50.886;4.332;2024-01-06T06:17:32;12.48;;;4.57;;
13493;SDS011;6819;50.886;4.332;2024-01-06T06:19:58;10.85;;;4.90;;
13493;SDS011;6819;50.886;4.332;2024-01-06T06:22:24;9.10;;;4.63;;
13493;SDS011;6819;50.886;4.332;2024-01-06T06:24:58;8.48;;;4.30;;
13493;SDS011;6819;50.886;4.332;2024-01-06T06:27:25;11.55;;;4.25;;
13493;SDS011;6819;50.886;4.332;2024-01-06T06:29:51;8.43;;;4.50;;
13493;SDS011;6819;50.886;4.332;2024-01-06T06:32:17;9.32;;;4.82;;
13493;SDS011;6819;50.886;4.332;2024-01-06T06:34:43;6.38;;;4.63;;
13493;SDS011;6819;50.886;4.332;2024-01-06T06:37:09;10.50;;;4.90;;
13493;SDS011;6819;50.886;4.332;2024-01-06T06:39:36;11.00;;;5.50;;
13493;SDS011;6819;50.886;4.332;2024-01-06T06:42:02;10.68;;;5.25;;
13493;SDS011;6819;50.886;4.332;2024-01-06T06:44:28;11.05;;;4.72;;
13493;SDS011;6819;50.886;4.332;2024-01-06T06:46:54;8.68;;;4.90;;
13493;SDS011;6819;50.886;4.332;2024-01-06T06:49:21;10.50;;;5.00;;
13493;SDS011;6819;50.886;4.332;2024-01-06T06:51:47;8.80;;;4.25;;
13493;SDS011;6819;50.886;4.332;2024-01-06T06:54:13;9.73;;;4.80;;
13493;SDS011;6819;50.886;4.332;2024-01-06T06:56:40;12.23;;;5.38;;
13493;SDS011;6819;50.886;4.332;2024-01-06T06:59:07;7.75;;;4.50;;
13493;SDS011;6819;50.886;4.332;2024-01-06T07:01:33;11.48;;;5.45;;
13493;SDS011;6819;50.886;4.332;2024-01-06T07:04:00;11.82;;;5.47;;
13493;SDS011;6819;50.886;4.332;2024-01-06T07:06:27;10.32;;;5.90;;
13493;SDS011;6819;50.886;4.332;2024-01-06T07:08:53;11.38;;;5.55;;
13493;SDS011;6819;50.886;4.332;2024-01-06T07:11:19;10.90;;;5.75;;
13493;SDS011;6819;50.886;4.332;2024-01-06T07:13:45;11.63;;;5.55;;
13493;SDS011;6819;50.886;4.332;2024-01-06T07:16:11;14.30;;;6.07;;
13493;SDS011;6819;50.886;4.332;2024-01-06T07:18:37;10.68;;;5.97;;
13493;SDS011;6819;50.886;4.332;2024-01-06T07:21:06;12.88;;;6.05;;
13493;SDS011;6819;50.886;4.332;2024-01-06T07:23:32;11.38;;;6.22;;
13493;SDS011;6819;50.886;4.332;2024-01-06T07:25:58;11.73;;;5.90;;
13493;SDS011;6819;50.886;4.332;2024-01-06T07:28:24;14.77;;;6.60;;
13493;SDS011;6819;50.886;4.332;2024-01-06T07:30:50;12.73;;;6.38;;
13493;SDS011;6819;50.886;4.332;2024-01-06T07:33:16;10.52;;;5.93;;
13493;SDS011;6819;50.886;4.332;2024-01-06T07:35:43;11.07;;;5.95;;
13493;SDS011;6819;50.886;4.332;2024-01-06T07:38:12;14.90;;;5.90;;
13493;SDS011;6819;50.886;4.332;2024-01-06T07:40:38;14.15;;;5.82;;
13493;SDS011;6819;50.886;4.332;2024-01-06T07:43:04;16.85;;;7.15;;
13493;SDS011;6819;50.886;4.332;2024-01-06T07:45:31;10.95;;;6.60;;
13493;SDS011;6819;50.886;4.332;2024-01-06T07:48:00;18.77;;;6.47;;
13493;SDS011;6819;50.886;4.332;2024-01-06T07:50:26;15.40;;;6.70;;
13493;SDS011;6819;50.886;4.332;2024-01-06T07:52:53;13.18;;;6.95;;
13493;SDS011;6819;50.886;4.332;2024-01-06T07:55:19;12.50;;;6.53;;
13493;SDS011;6819;50.886;4.332;2024-01-06T07:57:45;12.82;;;7.30;;
13493;SDS011;6819;50.886;4.332;2024-01-06T08:00:11;12.88;;;6.22;;
13493;SDS011;6819;50.886;4.332;2024-01-06T08:02:41;12.75;;;6.95;;
13493;SDS011;6819;50.886;4.332;2024-01-06T08:05:07;13.65;;;6.85;;
13493;SDS011;6819;50.886;4.332;2024-01-06T08:07:33;13.10;;;6.35;;
13493;SDS011;6819;50.886;4.332;2024-01-06T08:09:59;10.00;;;5.43;;
13493;SDS011;6819;50.886;4.332;2024-01-06T08:12:25;17.48;;;6.68;;
13493;SDS011;6819;50.886;4.332;2024-01-06T08:14:52;13.63;;;7.32;;
13493;SDS011;6819;50.886;4.332;2024-01-06T08:17:18;15.20;;;6.47;;
13493;SDS011;6819;50.886;4.332;2024-01-06T08:19:44;12.73;;;5.80;;
13493;SDS011;6819;50.886;4.332;2024-01-06T08:22:12;14.45;;;7.22;;
13493;SDS011;6819;50.886;4.332;2024-01-06T08:24:38;11.57;;;6.68;;
13493;SDS011;6819;50.886;4.332;2024-01-06T08:27:04;13.23;;;6.35;;
13493;SDS011;6819;50.886;4.332;2024-01-06T08:29:30;12.80;;;6.15;;
13493;SDS011;6819;50.886;4.332;2024-01-06T08:31:56;13.40;;;6.05;;
13493;SDS011;6819;50.886;4.332;2024-01-06T08:34:22;14.95;;;6.32;;
13493;SDS011;6819;50.886;4.332;2024-01-06T08:36:48;12.40;;;6.05;;
13493;SDS011;6819;50.886;4.332;2024-01-06T08:39:16;14.45;;;6.53;;
13493;SDS011;6819;50.886;4.332;2024-01-06T08:41:42;13.60;;;7.05;;
13493;SDS011;6819;50.886;4.332;2024-01-06T08:44:09;11.38;;;5.55;;
13493;SDS011;6819;50.886;4.332;2024-01-06T08:46:35;7.53;;;4.57;;
13493;SDS011;6819;50.886;4.332;2024-01-06T08:49:01;8.18;;;4.75;;
13493;SDS011;6819;50.886;4.332;2024-01-06T08:51:27;8.75;;;5.03;;
13493;SDS011;6819;50.886;4.332;2024-01-06T08:53:53;8.98;;;4.80;;
13493;SDS011;6819;50.886;4.332;2024-01-06T08:56:20;10.80;;;5.43;;
13493;SDS011;6819;50.886;4.332;2024-01-06T08:58:46;8.70;;;5.88;;
13493;SDS011;6819;50.886;4.332;2024-01-06T09:01:12;11.23;;;5.63;;
13493;SDS011;6819;50.886;4.332;2024-01-06T09:03:41;14.10;;;6.75;;
13493;SDS011;6819;50.886;4.332;2024-01-06T09:06:07;11.68;;;5.20;;
13493;SDS011;6819;50.886;4.332;2024-01-06T09:08:33;9.23;;;5.03;;
13493;SDS011;6819;50.886;4.332;2024-01-06T09:10:59;7.97;;;5.25;;
13493;SDS011;6819;50.886;4.332;2024-01-06T09:13:25;13.23;;;4.40;;
13493;SDS011;6819;50.886;4.332;2024-01-06T09:15:51;12.13;;;5.00;;
13493;SDS011;6819;50.886;4.332;2024-01-06T09:18:18;8.70;;;4.47;;
13493;SDS011;6819;50.886;4.332;2024-01-06T09:20:44;8.73;;;4.53;;
13493;SDS011;6819;50.886;4.332;2024-01-06T09:23:12;9.15;;;4.28;;
13493;SDS011;6819;50.886;4.332;2024-01-06T09:25:38;8.13;;;4.47;;
13493;SDS011;6819;50.886;4.332;2024-01-06T09:28:08;7.38;;;3.97;;
13493;SDS011;6819;50.886;4.332;2024-01-06T09:30:34;8.07;;;4.50;;
13493;SDS011;6819;50.886;4.332;2024-01-06T09:33:00;7.85;;;4.28;;
13493;SDS011;6819;50.886;4.332;2024-01-06T09:35:26;8.40;;;4.32;;
13493;SDS011;6819;50.886;4.332;2024-01-06T09:37:52;10.70;;;5.38;;
13493;SDS011;6819;50.886;4.332;2024-01-06T09:40:22;11.98;;;5.00;;
13493;SDS011;6819;50.886;4.332;2024-01-06T09:42:51;9.57;;;4.82;;
13493;SDS011;6819;50.886;4.332;2024-01-06T09:45:21;10.45;;;5.03;;
13493;SDS011;6819;50.886;4.332;2024-01-06T09:47:50;15.05;;;4.07;;
13493;SDS011;6819;50.886;4.332;2024-01-06T09:50:20;9.15;;;4.88;;
13493;SDS011;6819;50.886;4.332;2024-01-06T09:52:46;8.20;;;4.55;;
13493;SDS011;6819;50.886;4.332;2024-01-06T09:55:34;9.98;;;5.28;;
13493;SDS011;6819;50.886;4.332;2024-01-06T09:58:00;13.32;;;4.90;;
13493;SDS011;6819;50.886;4.332;2024-01-06T10:00:26;11.73;;;5.22;;
13493;SDS011;6819;50.886;4.332;2024-01-06T10:02:53;7.72;;;4.07;;
13493;SDS011;6819;50.886;4.332;2024-01-06T10:05:20;7.90;;;4.15;;
13493;SDS011;6819;50.886;4.332;2024-01-06T10:07:46;6.47;;;3.92;;
13493;SDS011;6819;50.886;4.332;2024-01-06T10:10:13;14.18;;;5.03;;
13493;SDS011;6819;50.886;4.332;2024-01-06T10:12:39;10.02;;;4.75;;
13493;SDS011;6819;50.886;4.332;2024-01-06T10:15:06;8.82;;;3.58;;
13493;SDS011;6819;50.886;4.332;2024-01-06T10:17:32;9.18;;;4.95;;
13493;SDS011;6819;50.886;4.332;2024-01-06T10:20:02;10.35;;;4.57;;
13493;SDS011;6819;50.886;4.332;2024-01-06T10:22:28;6.38;;;4.10;;
13493;SDS011;6819;50.886;4.332;2024-01-06T10:24:54;6.45;;;3.95;;
13493;SDS011;6819;50.886;4.332;2024-01-06T10:27:21;9.52;;;4.18;;
13493;SDS011;6819;50.886;4.332;2024-01-06T10:29:47;7.15;;;4.20;;
13493;SDS011;6819;50.886;4.332;2024-01-06T10:32:13;5.85;;;3.67;;
13493;SDS011;6819;50.886;4.332;2024-01-06T10:34:39;8.50;;;4.43;;
13493;SDS011;6819;50.886;4.332;2024-01-06T10:37:05;10.38;;;5.00;;
13493;SDS011;6819;50.886;4.332;2024-01-06T10:39:31;10.60;;;4.85;;
13493;SDS011;6819;50.886;4.332;2024-01-06T10:41:58;11.23;;;4.95;;
13493;SDS011;6819;50.886;4.332;2024-01-06T10:44:24;12.48;;;4.32;;
13493;SDS011;6819;50.886;4.332;2024-01-06T10:46:51;14.10;;;5.45;;
13493;SDS011;6819;50.886;4.332;2024-01-06T10:49:17;11.15;;;4.78;;
13493;SDS011;6819;50.886;4.332;2024-01-06T10:51:46;7.55;;;4.78;;
13493;SDS011;6819;50.886;4.332;2024-01-06T10:54:13;7.93;;;4.63;;
13493;SDS011;6819;50.886;4.332;2024-01-06T10:56:41;9.23;;;4.88;;
13493;SDS011;6819;50.886;4.332;2024-01-06T10:59:08;10.18;;;4.78;;
13493;SDS011;6819;50.886;4.332;2024-01-06T11:01:34;12.10;;;5.22;;
13493;SDS011;6819;50.886;4.332;2024-01-06T11:04:02;9.35;;;5.22;;
13493;SDS011;6819;50.886;4.332;2024-01-06T11:06:31;8.90;;;5.20;;
13493;SDS011;6819;50.886;4.332;2024-01-06T11:11:27;6.93;;;4.30;;
13493;SDS011;6819;50.886;4.332;2024-01-06T11:13:54;7.60;;;4.82;;
13493;SDS011;6819;50.886;4.332;2024-01-06T11:16:39;5.95;;;4.00;;
13493;SDS011;6819;50.886;4.332;2024-01-06T11:21:50;6.43;;;4.25;;
13493;SDS011;6819;50.886;4.332;2024-01-06T11:24:19;8.57;;;4.78;;
13493;SDS011;6819;50.886;4.332;2024-01-06T11:26:51;8.65;;;3.78;;
13493;SDS011;6819;50.886;4.332;2024-01-06T11:29:20;8.23;;;3.97;;
13493;SDS011;6819;50.886;4.332;2024-01-06T11:34:31;6.80;;;4.13;;
13493;SDS011;6819;50.886;4.332;2024-01-06T11:36:57;9.38;;;4.15;;
13493;SDS011;6819;50.886;4.332;2024-01-06T11:39:40;7.15;;;4.25;;
13493;SDS011;6819;50.886;4.332;2024-01-06T11:42:09;7.63;;;4.32;;
13493;SDS011;6819;50.886;4.332;2024-01-06T11:44:39;6.28;;;3.60;;
13493;SDS011;6819;50.886;4.332;2024-01-06T11:47:05;6.03;;;3.97;;
13493;SDS011;6819;50.886;4.332;2024-01-06T11:49:32;7.45;;;4.43;;
13493;SDS011;6819;50.886;4.332;2024-01-06T11:52:00;7.28;;;3.78;;
13493;SDS011;6819;50.886;4.332;2024-01-06T11:54:26;7.60;;;3.75;;
13493;SDS011;6819;50.886;4.332;2024-01-06T11:56:53;6.55;;;3.90;;
13493;SDS011;6819;50.886;4.332;2024-01-06T11:59:20;6.90;;;4.57;;
13493;SDS011;6819;50.886;4.332;2024-01-06T12:01:46;7.38;;;4.22;;
13493;SDS011;6819;50.886;4.332;2024-01-06T12:04:13;8.13;;;4.38;;
13493;SDS011;6819;50.886;4.332;2024-01-06T12:06:40;6.05;;;4.18;;
13493;SDS011;6819;50.886;4.332;2024-01-06T12:09:11;6.63;;;4.00;;
13493;SDS011;6819;50.886;4.332;2024-01-06T12:11:40;7.05;;;4.25;;
13493;SDS011;6819;50.886;4.332;2024-01-06T12:14:09;7.03;;;4.15;;
13493;SDS011;6819;50.886;4.332;2024-01-06T12:16:36;12.75;;;4.68;;
13493;SDS011;6819;50.886;4.332;2024-01-06T12:19:02;7.47;;;4.20;;
13493;SDS011;6819;50.886;4.332;2024-01-06T12:21:29;8.00;;;4.57;;
13493;SDS011;6819;50.886;4.332;2024-01-06T12:24:17;12.73;;;3.90;;
13493;SDS011;6819;50.886;4.332;2024-01-06T12:26:45;9.65;;;4.38;;
13493;SDS011;6819;50.886;4.332;2024-01-06T12:29:12;6.28;;;3.53;;
13493;SDS011;6819;50.886;4.332;2024-01-06T12:31:41;6.50;;;3.63;;
13493;SDS011;6819;50.886;4.332;2024-01-06T12:34:09;6.20;;;3.85;;
13493;SDS011;6819;50.886;4.332;2024-01-06T12:36:36;6.75;;;3.63;;
13493;SDS011;6819;50.886;4.332;2024-01-06T12:39:06;6.70;;;3.78;;
13493;SDS011;6819;50.886;4.332;2024-01-06T12:41:37;5.70;;;3.50;;
13493;SDS011;6819;50.886;4.332;2024-01-06T12:44:03;8.15;;;4.18;;
13493;SDS011;6819;50.886;4.332;2024-01-06T12:46:30;6.90;;;4.07;;
13493;SDS011;6819;50.886;4.332;2024-01-06T12:48:56;6.50;;;3.92;;
13493;SDS011;6819;50.886;4.332;2024-01-06T12:51:23;11.32;;;4.20;;
13493;SDS011;6819;50.886;4.332;2024-01-06T12:53:49;6.55;;;4.10;;
13493;SDS011;6819;50.886;4.332;2024-01-06T12:56:15;6.50;;;4.00;;
13493;SDS011;6819;50.886;4.332;2024-01-06T12:58:42;7.93;;;3.78;;
13493;SDS011;6819;50.886;4.332;2024-01-06T13:01:08;9.85;;;4.38;;
13493;SDS011;6819;50.886;4.332;2024-01-06T13:03:34;6.82;;;4.03;;
13493;SDS011;6819;50.886;4.332;2024-01-06T13:06:01;7.57;;;4.03;;
13493;SDS011;6819;50.886;4.332;2024-01-06T13:08:27;7.80;;;3.95;;
13493;SDS011;6819;50.886;4.332;2024-01-06T13:10:54;8.00;;;4.32;;
13493;SDS011;6819;50.886;4.332;2024-01-06T13:13:20;7.38;;;4.05;;
13493;SDS011;6819;50.886;4.332;2024-01-06T13:15:46;5.82;;;3.83;;
13493;SDS011;6819;50.886;4.332;2024-01-06T13:18:12;11.57;;;4.55;;
13493;SDS011;6819;50.886;4.332;2024-01-06T13:20:41;8.57;;;4.38;;
13493;SDS011;6819;50.886;4.332;2024-01-06T13:23:08;9.60;;;4.40;;
13493;SDS011;6819;50.886;4.332;2024-01-06T13:25:34;9.07;;;4.68;;
13493;SDS011;6819;50.886;4.332;2024-01-06T13:28:01;9.65;;;4.10;;
13493;SDS011;6819;50.886;4.332;2024-01-06T13:30:27;6.03;;;4.15;;
13493;SDS011;6819;50.886;4.332;2024-01-06T13:32:53;11.02;;;4.40;;
13493;SDS011;6819;50.886;4.332;2024-01-06T13:35:22;8.32;;;3.72;;
13493;SDS011;6819;50.886;4.332;2024-01-06T13:37:51;5.55;;;3.65;;
13493;SDS011;6819;50.886;4.332;2024-01-06T13:40:18;4.50;;;2.90;;
13493;SDS011;6819;50.886;4.332;2024-01-06T13:42:47;7.18;;;3.47;;
13493;SDS011;6819;50.886;4.332;2024-01-06T13:45:13;7.45;;;4.25;;
13493;SDS011;6819;50.886;4.332;2024-01-06T13:47:39;8.35;;;4.05;;
13493;SDS011;6819;50.886;4.332;2024-01-06T13:50:11;7.28;;;3.65;;
13493;SDS011;6819;50.886;4.332;2024-01-06T13:52:38;7.65;;;3.50;;
13493;SDS011;6819;50.886;4.332;2024-01-06T13:55:04;6.57;;;3.85;;
13493;SDS011;6819;50.886;4.332;2024-01-06T13:57:31;6.95;;;3.92;;
13493;SDS011;6819;50.886;4.332;2024-01-06T13:59:57;7.63;;;3.63;;
13493;SDS011;6819;50.886;4.332;2024-01-06T14:02:24;4.82;;;3.38;;
13493;SDS011;6819;50.886;4.332;2024-01-06T14:04:51;5.32;;;2.92;;
13493;SDS011;6819;50.886;4.332;2024-01-06T14:07:17;8.10;;;3.40;;
13493;SDS011;6819;50.886;4.332;2024-01-06T14:09:44;36.85;;;5.05;;
13493;SDS011;6819;50.886;4.332;2024-01-06T14:12:11;9.18;;;3.28;;
13493;SDS011;6819;50.886;4.332;2024-01-06T14:14:38;7.13;;;3.10;;
13493;SDS011;6819;50.886;4.332;2024-01-06T14:17:04;9.95;;;2.88;;
13493;SDS011;6819;50.886;4.332;2024-01-06T14:19:30;5.85;;;3.47;;
13493;SDS011;6819;50.886;4.332;2024-01-06T14:21:56;64.45;;;5.15;;
13493;SDS011;6819;50.886;4.332;2024-01-06T14:24:22;5.50;;;3.28;;
13493;SDS011;6819;50.886;4.332;2024-01-06T14:26:50;6.05;;;3.05;;
13493;SDS011;6819;50.886;4.332;2024-01-06T14:29:16;6.28;;;3.05;;
13493;SDS011;6819;50.886;4.332;2024-01-06T14:31:43;5.38;;;3.30;;
13493;SDS011;6819;50.886;4.332;2024-01-06T14:34:09;5.60;;;3.22;;
13493;SDS011;6819;50.886;4.332;2024-01-06T14:36:35;5.90;;;3.05;;
13493;SDS011;6819;50.886;4.332;2024-01-06T14:39:01;8.77;;;3.97;;
13493;SDS011;6819;50.886;4.332;2024-01-06T14:41:29;5.13;;;2.90;;
13493;SDS011;6819;50.886;4.332;2024-01-06T14:43:55;8.23;;;4.00;;
13493;SDS011;6819;50.886;4.332;2024-01-06T14:46:21;4.68;;;2.60;;
13493;SDS011;6819;50.886;4.332;2024-01-06T14:48:47;4.13;;;2.25;;
13493;SDS011;6819;50.886;4.332;2024-01-06T14:51:13;3.13;;;2.10;;
13493;SDS011;6819;50.886;4.332;2024-01-06T14:53:39;59.75;;;4.45;;
13493;SDS011;6819;50.886;4.332;2024-01-06T14:56:05;5.55;;;2.17;;
13493;SDS011;6819;50.886;4.332;2024-01-06T14:58:31;2.92;;;2.17;;
13493;SDS011;6819;50.886;4.332;2024-01-06T15:00:57;2.55;;;1.98;;
13493;SDS011;6819;50.886;4.332;2024-01-06T15:03:24;3.03;;;2.20;;